CJJ4 weather

Deloraine Airport
Deloraine, Manitoba, Canada

Public forecast

Using degrees Celsius for public forecast. Weather courtesy of forecast.io.

METAR (pilot weather report)

Closest report is Rolla Municipal Airport, 38.2 nm (70.7 km) ESE. Retrieved 2019/05/27 01:35 UTC (0 seconds ago):

K06D 270135Z AUTO 04010KT 10SM OVC026 04/M00 A3015 RMK AO2

TAF (pilot weather forecast)

Forecast is more than 12 hours old.

Closest forecast is Brandon Municipal Airport, 50.4 nm (93.3 km) NNE. Retrieved 2019/05/26 00:42 UTC (1 day ago):

TAF CYBR 262339Z 2700/2712 15006KT P6SM FEW025 BKN100 BECMG 2700/2702 06008KT FEW120 FM270800 03005KT P6SM SKC TEMPO 2708/2712 2SM BR PROB30 2710/2712 1/2SM FG RMK NXT FCST BY 270600Z